Aeroporto :
LOGIN :

Iscrizione | Disclaimer

   EN    FR    IT 

 










Sommario :    VFR   VFR Marginale   IFR   IFR Intensivo   IFR Molto Intensivo
Visibilità : 
Base nubi : 
>= 8 km
>= 3000ft
5 / 8 km
1000 / 3000 ft
1500m / 5 km
500 / 1000 ft
800 / 1500m
200 / 500 ft
< 800m
< 200 ft
Simboli :   Temporali  Nebbia  Neve Forte  Precipitazioni Forti  Vento > 20 kt
SIGMETs :   Varie  Temporali  Ghiacco  Turbolenza  Onda orograficha  Ceneri Vulcaniche






- Altitudine del aeroporto : 135 ft
- Codice IATA : EDI


EGPH - Edinburgh

ULTIMO METAR :
  • 280950Z 19014KT CAVOK 05/02 Q0998

METARs OBSOLETI :
  • 280920Z 18008KT 150V210 9999 FEW019 05/02 Q0999
  • 280850Z 22008KT 190V270 9999 FEW019 05/02 Q1000
  • 280820Z 18008KT CAVOK 05/02 Q1000
  • 280750Z 17008KT CAVOK 05/01 Q1001
  • 280720Z 20012KT CAVOK 04/02 Q1001

TAF TAF EGPH
Valido dal 28 a 06 ore il 29 a 06 ore UTC


280454Z 2806/2906 23009KT 9999 FEW030
BECMG 2808/2811 15010KT
TEMPO 2809/2818 5000 RA BKN012
PROB40
TEMPO 2812/2818 3000 +RADZ RASN BKN005
BECMG 2814/2817 07008KT
TEMPO 2818/2904 BKN012
PROB40
TEMPO 2818/2904 2000 DZRA BR BKN003
BECMG 2904/2906 24012KT
TEMPO 2904/2906 25015G25KT 5000 RA BKN008
ATIS : +44 131 339 2823



MetMap, La meteo Aeronautica in un colpo d'occhio ! - Copyright ORBIFLY Dicembre 2007 - Disclaimer

ORBIFLY MET'MAP TEAM :

Programmazione e sviluppo : Alexandra Zaïnal
Concezione : Baudouin d'Aumeries
Aiuto per la programmazione : Marc-Olivier Méhu
Supporto tecnico e logistico : Manuel Goepfert
Aiuto per la traduzione : Arnaldo La Scala

Contatto : metmap@orbifly.com




FONTI E CREDITI :

   NOAA